Hampton, VA (23667)

12:20 PM EDT on July 29, 2016 (GMT -0400)
NorthEnd-HuntingtonHeights | | Change Station

Elev 46 ft 37.00 °N, 76.44 °W | Updated 7 seconds ago

Mostly Cloudy
Mostly Cloudy
91.0 °F
Feels Like 105 °F
N
1.1
Wind Variable Wind from SSE
Gusts 1.1 mph

Today
High -- | Low -- °F
--% Chance of Precip.
Yesterday
High -- | Low -- °F
Precip. -- in
Pressure 29.88 in
Visibility 10.0 miles
Clouds Few 2500 ft
Mostly Cloudy 3900 ft
Heat Index 105 °F
Dew Point 78 °F
Humidity 65%
Rainfall 0.00 in
Snow Depth Not available.
6:08 AM 8:14 PM
Waning Crescent, 21% visible
METAR KLFI 291558Z AUTO 29007KT 10SM FEW025 BKN039 28/23 A2986 RMK AO2 SLP118 T02840233 $
Pressure 29.88 in
Visibility 10.0 miles
Clouds Few 2500 ft
Mostly Cloudy 3900 ft
Heat Index 105 °F
Dew Point 78 °F
Humidity 65%
Rainfall 0.00 in
Snow Depth Not available.
6:08 AM 8:14 PM
Waning Crescent, 21% visible
METAR KLFI 291558Z AUTO 29007KT 10SM FEW025 BKN039 28/23 A2986 RMK AO2 SLP118 T02840233 $

10-Day Weather Forecast

Almanac

Astronomy

Jul. 29, 2016 Rise Set
Actual Time
Civil Twilight
Nautical Twilight
Astronomical Twilight
Moon
Length of Visible Light
Length of Day
Tomorrow will be .
, % of the Moon is Illuminated

Today's Extremes

State Highs State Lows

Community

WunderPhotos

Upload Photos

1,928,365 photos uploaded!

WunderBlog® & News

Nearby

Air Quality

  Air Quality AQ Index Pollutant
Not available.

Snow Depth

Station Depth Elevation

Earthquake Activity

City Distance Mag. Time & Date
Minimum magnitude displayed is 2.5.

Coastal Water Temperatures

Place Temperature

Stations

Nearby Weather Stations

Station Location Temp. Windchill Dew Point Humidity Wind Precip. Elev Updated Type
                   

Watches & Warnings

There are currently no watches in effect.